createdAt,value
2024-01-15T00:01:02.112Z,38.13
2024-01-15T00:03:50.029Z,31.60
2024-01-15T00:06:17.771Z,42.33
2024-01-15T00:08:45.782Z,41.92
2024-01-15T00:11:13.382Z,35.80
2024-01-15T00:13:41.339Z,34.75
2024-01-15T00:16:08.889Z,26.85
2024-01-15T00:18:37.159Z,30.15
2024-01-15T00:21:06.114Z,32.45
2024-01-15T00:23:33.806Z,32.00
2024-01-15T00:26:02.077Z,25.38
2024-01-15T00:28:29.937Z,21.80
2024-01-15T00:30:57.539Z,26.65
2024-01-15T00:33:25.466Z,30.73
2024-01-15T00:35:53.123Z,30.80
2024-01-15T00:38:21.646Z,52.78
2024-01-15T00:40:49.199Z,48.60
2024-01-15T00:43:19.701Z,31.45
2024-01-15T00:45:47.276Z,33.47
2024-01-15T00:48:15.230Z,29.17
2024-01-15T00:50:43.847Z,33.70
2024-01-15T00:53:11.613Z,36.85
2024-01-15T00:55:39.420Z,18.30
2024-01-15T00:58:07.112Z,30.08
2024-01-15T01:00:34.621Z,29.15
2024-01-15T01:03:02.557Z,27.85
2024-01-15T01:05:30.162Z,30.55
2024-01-15T01:07:57.928Z,28.42
2024-01-15T01:10:25.409Z,25.75
2024-01-15T01:12:53.252Z,37.42
2024-01-15T01:15:21.533Z,33.47
2024-01-15T01:17:49.480Z,37.42
2024-01-15T01:20:19.273Z,34.03
2024-01-15T01:22:47.391Z,36.88
2024-01-15T01:25:15.253Z,39.60
2024-01-15T01:27:43.001Z,35.20
2024-01-15T01:30:11.090Z,31.55
2024-01-15T01:32:39.090Z,37.30
2024-01-15T01:35:06.983Z,39.78
2024-01-15T01:37:35.710Z,34.58
2024-01-15T01:40:03.424Z,32.58
2024-01-15T01:42:31.249Z,26.08
2024-01-15T01:44:58.757Z,23.55
2024-01-15T01:47:28.004Z,28.48
2024-01-15T01:49:55.962Z,23.92
2024-01-15T01:52:25.460Z,31.17
2024-01-15T01:54:53.886Z,27.13
2024-01-15T01:57:21.851Z,22.95
2024-01-15T01:59:49.609Z,25.80
2024-01-15T02:02:18.114Z,28.20
2024-01-15T02:04:46.133Z,26.88
2024-01-15T02:07:14.400Z,21.90
2024-01-15T02:09:43.143Z,27.20
2024-01-15T02:12:11.129Z,26.38
2024-01-15T02:14:38.779Z,25.33
2024-01-15T02:17:06.528Z,26.35
2024-01-15T02:19:34.253Z,24.00
2024-01-15T02:22:02.251Z,17.50
2024-01-15T02:24:29.991Z,18.75
2024-01-15T02:26:57.705Z,25.63
2024-01-15T02:29:25.437Z,25.55
2024-01-15T02:31:53.422Z,25.38
2024-01-15T02:34:21.230Z,23.27
2024-01-15T02:36:49.215Z,27.23
2024-01-15T02:39:16.850Z,23.95
2024-01-15T02:41:44.737Z,29.45
2024-01-15T02:44:12.248Z,27.00
2024-01-15T02:46:39.933Z,26.23
2024-01-15T02:49:07.642Z,19.08
2024-01-15T02:51:35.725Z,28.63
2024-01-15T02:54:03.298Z,27.85
2024-01-15T02:56:30.975Z,28.63
2024-01-15T02:58:58.561Z,24.30
2024-01-15T03:01:26.375Z,27.92
2024-01-15T03:03:54.119Z,29.60
2024-01-15T03:06:22.165Z,28.65
2024-01-15T03:08:49.783Z,30.00
2024-01-15T03:11:17.800Z,27.83
2024-01-15T03:13:45.317Z,25.83
2024-01-15T03:16:13.272Z,25.63
2024-01-15T03:18:43.942Z,24.73
2024-01-15T03:21:11.839Z,27.10
2024-01-15T03:23:39.473Z,28.40
2024-01-15T03:26:07.231Z,25.73
2024-01-15T03:28:34.647Z,25.92
2024-01-15T03:31:02.646Z,24.02
2024-01-15T03:33:30.370Z,26.88
2024-01-15T03:35:58.292Z,29.95
2024-01-15T03:38:25.787Z,29.58
2024-01-15T03:40:53.744Z,30.08
2024-01-15T03:43:21.283Z,27.45
2024-01-15T03:45:49.208Z,22.25
2024-01-15T03:48:16.652Z,39.67
2024-01-15T03:50:44.643Z,31.45
2024-01-15T03:53:12.094Z,29.70
2024-01-15T03:55:39.920Z,36.25
2024-01-15T03:58:07.291Z,44.83
2024-01-15T04:00:35.449Z,36.40
2024-01-15T04:03:03.012Z,33.92
2024-01-15T04:05:30.977Z,34.53
2024-01-15T04:07:58.524Z,33.70
2024-01-15T05:18:42.315Z,34.22
2024-01-15T05:21:10.138Z,41.03
2024-01-15T05:23:38.048Z,61.33
2024-01-15T05:26:05.756Z,57.50
2024-01-15T05:28:33.557Z,47.17
2024-01-15T05:31:01.419Z,35.63
2024-01-15T05:33:29.445Z,33.13
2024-01-15T05:35:57.158Z,40.78
2024-01-15T05:38:25.080Z,36.25
2024-01-15T05:40:52.574Z,38.30
2024-01-15T05:43:20.613Z,40.08
2024-01-15T05:45:48.244Z,35.55
2024-01-15T05:48:16.464Z,47.00
2024-01-15T05:50:44.278Z,34.85
2024-01-15T05:53:12.108Z,37.53
2024-01-15T05:55:39.851Z,40.25
2024-01-15T05:58:08.369Z,30.85
2024-01-15T06:00:37.338Z,28.88
2024-01-15T06:03:05.951Z,29.55
2024-01-15T06:05:33.515Z,30.67
2024-01-15T06:08:01.366Z,34.00
2024-01-15T06:10:28.812Z,19.58
2024-01-15T06:12:56.703Z,27.77
2024-01-15T06:15:24.129Z,34.03
2024-01-15T06:17:52.033Z,21.33
2024-01-15T06:20:19.663Z,33.47
2024-01-15T06:22:47.501Z,34.72
2024-01-15T06:25:15.035Z,28.33
2024-01-15T06:27:42.952Z,31.55
2024-01-15T06:30:11.223Z,36.78
2024-01-15T06:32:39.740Z,129.63
2024-01-15T06:35:07.665Z,139.77
2024-01-15T06:37:35.496Z,53.60
2024-01-15T06:40:02.973Z,41.65
2024-01-15T06:42:31.016Z,37.33
2024-01-15T06:44:58.601Z,39.05
2024-01-15T06:47:26.540Z,40.90
2024-01-15T06:49:54.194Z,35.25
2024-01-15T06:52:22.015Z,36.28
2024-01-15T06:54:49.493Z,35.72
2024-01-15T06:57:17.547Z,34.22
2024-01-15T06:59:47.953Z,41.78
2024-01-15T07:02:15.897Z,70.07
2024-01-15T07:04:43.880Z,44.25
2024-01-15T07:07:12.052Z,35.58
2024-01-15T07:09:39.454Z,52.70
2024-01-15T07:12:07.434Z,56.45
2024-01-15T07:14:34.909Z,40.78
2024-01-15T07:17:02.938Z,37.42
2024-01-15T07:19:30.782Z,36.63
2024-01-15T07:21:59.121Z,42.70
2024-01-15T07:24:26.767Z,39.92
2024-01-15T07:26:54.945Z,46.28
2024-01-15T07:29:22.546Z,39.35
2024-01-15T07:31:54.095Z,45.78
2024-01-15T07:34:22.102Z,60.45
2024-01-15T07:36:50.110Z,40.78
2024-01-15T07:39:18.607Z,34.75
2024-01-15T07:41:50.532Z,38.10
2024-01-15T07:44:25.287Z,34.35
2024-01-15T07:46:53.639Z,53.80
2024-01-15T07:49:21.253Z,34.47
2024-01-15T07:51:49.334Z,27.75
2024-01-15T07:54:17.038Z,29.75
2024-01-15T07:57:07.449Z,40.65
2024-01-15T07:59:37.005Z,40.95
2024-01-15T08:02:04.911Z,36.72
2024-01-15T08:04:32.642Z,42.33
2024-01-15T08:07:10.002Z,46.22
2024-01-15T08:10:08.646Z,51.80
2024-01-15T08:12:36.794Z,42.08
2024-01-15T08:15:06.449Z,46.28
2024-01-15T08:17:34.742Z,41.78
2024-01-15T08:20:03.221Z,26.80
2024-01-15T08:22:32.448Z,32.72
2024-01-15T08:25:00.033Z,24.95
2024-01-15T08:27:28.168Z,27.15
2024-01-15T08:29:55.650Z,28.15
2024-01-15T08:32:23.691Z,36.60
2024-01-15T08:34:54.252Z,36.70
2024-01-15T08:37:22.616Z,52.67
2024-01-15T08:39:52.385Z,33.25
2024-01-15T08:42:20.758Z,38.60
2024-01-15T08:44:48.425Z,44.22
2024-01-15T08:47:16.672Z,39.70
2024-01-15T08:49:46.887Z,36.88
2024-01-15T08:52:15.365Z,40.47
2024-01-15T08:54:42.897Z,42.03
2024-01-15T08:57:11.007Z,38.92
2024-01-15T08:59:40.924Z,43.63
2024-01-15T09:02:09.389Z,41.22
2024-01-15T09:04:38.267Z,34.53
2024-01-15T09:07:06.365Z,30.95
2024-01-15T09:09:33.827Z,32.05
2024-01-15T09:12:01.934Z,26.17
2024-01-15T09:14:36.338Z,27.88
2024-01-15T09:17:06.613Z,26.67
2024-01-15T09:19:34.424Z,38.20
2024-01-15T09:22:02.700Z,36.58
2024-01-15T09:24:30.339Z,35.53
2024-01-15T09:26:58.328Z,36.05
2024-01-15T09:29:25.944Z,33.90
2024-01-15T09:31:54.317Z,36.88
2024-01-15T09:34:22.054Z,31.95
2024-01-15T09:36:50.431Z,32.30
2024-01-15T09:39:18.526Z,29.92
2024-01-15T09:41:46.905Z,31.45
2024-01-15T09:44:14.463Z,36.90
2024-01-15T09:46:45.189Z,37.20
2024-01-15T09:49:13.068Z,49.63
2024-01-15T09:51:43.534Z,40.88
2024-01-15T09:54:11.625Z,36.67
2024-01-15T09:56:39.842Z,32.35
2024-01-15T09:59:08.565Z,33.08
2024-01-15T10:01:40.047Z,36.40
2024-01-15T10:04:07.804Z,32.50
2024-01-15T10:06:36.540Z,33.50
2024-01-15T10:09:05.206Z,29.75
2024-01-15T10:11:34.429Z,29.67
2024-01-15T10:14:02.865Z,30.10
2024-01-15T10:16:31.184Z,31.73
2024-01-15T10:18:59.319Z,28.38
2024-01-15T10:21:30.204Z,30.48
2024-01-15T10:23:57.900Z,34.03
2024-01-15T10:26:27.822Z,39.40
2024-01-15T10:28:55.728Z,64.63
2024-01-15T10:31:26.358Z,63.33
2024-01-15T10:33:56.244Z,41.33
2024-01-15T10:36:24.248Z,34.40
2024-01-15T10:38:52.110Z,39.53
2024-01-15T10:41:20.493Z,65.20
2024-01-15T10:43:48.362Z,61.47
2024-01-15T10:46:16.451Z,48.95
2024-01-15T10:48:44.322Z,38.20
2024-01-15T10:51:12.367Z,56.75
2024-01-15T10:53:43.253Z,47.53
2024-01-15T10:56:14.408Z,57.22
2024-01-15T10:58:51.331Z,51.20
2024-01-15T11:01:21.476Z,53.17
2024-01-15T11:03:49.260Z,44.20
2024-01-15T11:06:24.135Z,55.30
2024-01-15T11:08:53.676Z,47.42
2024-01-15T11:11:23.580Z,53.67
2024-01-15T11:13:53.998Z,72.63
2024-01-15T11:16:22.016Z,124.78
2024-01-15T11:18:58.604Z,98.32
2024-01-15T11:21:29.086Z,59.17
2024-01-15T11:24:01.345Z,48.45
2024-01-15T11:26:35.858Z,52.13
2024-01-15T11:29:38.743Z,51.90
2024-01-15T11:32:08.677Z,53.50
2024-01-15T11:35:00.909Z,60.20
2024-01-15T11:37:50.823Z,58.17
2024-01-15T11:40:37.436Z,59.25
2024-01-15T11:43:07.321Z,53.33
2024-01-15T11:45:37.815Z,57.60
2024-01-15T11:48:19.654Z,58.28
2024-01-15T11:50:51.321Z,54.33
2024-01-15T11:53:37.572Z,49.22
2024-01-15T11:56:13.503Z,53.33
2024-01-15T11:58:41.876Z,49.42
2024-01-15T12:01:09.755Z,51.83
2024-01-15T12:03:37.998Z,47.38
2024-01-15T12:06:10.442Z,40.78
2024-01-15T12:08:38.312Z,38.90
2024-01-15T12:11:15.348Z,44.58
2024-01-15T12:13:57.951Z,47.80
2024-01-15T12:16:42.196Z,49.90
2024-01-15T12:19:10.355Z,54.83
2024-01-15T12:21:40.918Z,50.15
2024-01-15T12:24:09.349Z,42.75
2024-01-15T12:26:36.954Z,43.38
2024-01-15T12:29:08.842Z,37.80
2024-01-15T12:31:36.684Z,46.25
2024-01-15T12:34:04.984Z,78.20
2024-01-15T12:36:33.029Z,81.97
2024-01-15T12:39:01.762Z,73.45
2024-01-15T12:41:32.838Z,168.38
2024-01-15T12:44:16.822Z,118.18
2024-01-15T12:47:06.113Z,113.85
2024-01-15T12:52:51.335Z,67.90
2024-01-15T12:55:38.176Z,79.80
2024-01-15T12:58:30.324Z,83.45
2024-01-15T13:01:04.921Z,77.40
2024-01-15T13:03:46.214Z,73.03
2024-01-15T13:06:19.447Z,77.70
2024-01-15T13:08:50.453Z,83.63
2024-01-15T13:11:35.245Z,91.43
2024-01-15T13:14:05.556Z,141.63
2024-01-15T13:16:33.479Z,146.70
2024-01-15T13:19:01.293Z,125.95
2024-01-15T13:21:29.300Z,87.93
2024-01-15T13:23:57.105Z,97.50
2024-01-15T13:26:25.736Z,94.68
2024-01-15T13:28:53.197Z,91.97
2024-01-15T13:31:22.191Z,92.55
2024-01-15T13:33:49.947Z,78.13
2024-01-15T13:36:21.401Z,59.60
2024-01-15T13:38:50.077Z,52.05
2024-01-15T13:41:20.272Z,48.30
2024-01-15T13:43:51.221Z,59.05
2024-01-15T13:46:19.044Z,53.58
2024-01-15T13:48:47.788Z,53.30
2024-01-15T13:51:15.901Z,54.38
2024-01-15T13:53:43.465Z,56.85
2024-01-15T13:56:12.236Z,49.95
2024-01-15T13:58:39.702Z,46.95
2024-01-15T14:01:07.830Z,50.67
2024-01-15T14:03:35.555Z,51.27
2024-01-15T14:06:10.292Z,52.80
2024-01-15T14:08:38.561Z,65.90
2024-01-15T14:11:07.816Z,57.00
2024-01-15T14:13:35.398Z,56.20
2024-01-15T14:16:03.209Z,56.58
2024-01-15T14:18:34.839Z,58.47
2024-01-15T14:21:03.827Z,54.80
2024-01-15T14:23:31.336Z,54.60
2024-01-15T14:25:59.303Z,59.13
2024-01-15T14:28:26.878Z,63.17
2024-01-15T14:30:55.647Z,49.03
2024-01-15T14:33:24.718Z,57.65
2024-01-15T14:35:53.093Z,70.50
2024-01-15T14:38:20.604Z,60.65
2024-01-15T14:40:48.614Z,48.42
2024-01-15T14:43:16.477Z,43.42
2024-01-15T14:45:46.933Z,42.33
2024-01-15T14:48:15.365Z,31.25
2024-01-15T14:50:43.380Z,20.50
2024-01-15T14:53:10.932Z,17.13
2024-01-15T14:55:38.890Z,13.05
2024-01-15T14:58:07.238Z,12.02
2024-01-15T15:00:35.449Z,12.55
2024-01-15T15:03:03.912Z,14.57
2024-01-15T15:05:32.084Z,11.57
2024-01-15T15:07:59.553Z,19.63
2024-01-15T15:10:28.333Z,25.17
2024-01-15T15:12:55.949Z,51.40
2024-01-15T15:15:25.184Z,25.50
2024-01-15T15:17:54.223Z,28.40
2024-01-15T15:20:23.665Z,29.33
2024-01-15T15:22:56.482Z,27.00
2024-01-15T15:25:24.636Z,32.47
2024-01-15T15:27:52.268Z,26.85
2024-01-15T15:30:20.366Z,39.60
2024-01-15T15:32:48.273Z,50.63
2024-01-15T15:35:17.749Z,41.40
2024-01-15T15:37:45.598Z,32.10
2024-01-15T15:40:14.497Z,35.83
2024-01-15T15:42:42.236Z,35.53
2024-01-15T15:45:11.207Z,28.85
2024-01-15T15:47:39.027Z,29.67
2024-01-15T15:50:11.554Z,28.15
2024-01-15T15:52:39.554Z,36.65
2024-01-15T15:55:09.487Z,37.05
2024-01-15T15:57:51.560Z,32.45
2024-01-15T16:00:21.893Z,28.58
2024-01-15T16:02:49.467Z,23.42
2024-01-15T16:05:17.264Z,35.33
2024-01-15T16:07:44.749Z,36.63
2024-01-15T16:10:12.865Z,36.63
2024-01-15T16:12:42.214Z,28.55
2024-01-15T16:15:21.950Z,32.03
2024-01-15T16:23:17.830Z,31.20
2024-01-15T16:23:32.429Z,50.80
2024-01-15T16:24:08.199Z,58.42
2024-01-15T16:26:31.157Z,29.83
2024-01-15T16:29:00.885Z,28.23
2024-01-15T16:31:30.220Z,47.15
2024-01-15T16:34:02.236Z,66.32
2024-01-15T16:36:33.736Z,76.28
2024-01-15T16:39:02.494Z,59.03
2024-01-15T16:41:31.114Z,54.72
2024-01-15T16:43:59.651Z,52.42
2024-01-15T16:46:27.870Z,97.63
2024-01-15T16:48:55.892Z,85.63
2024-01-15T16:51:23.867Z,58.22
2024-01-15T16:53:51.489Z,62.28
2024-01-15T16:56:19.499Z,81.20
2024-01-15T16:58:47.414Z,58.20
2024-01-15T17:01:15.315Z,63.80
2024-01-15T17:03:42.763Z,41.05
2024-01-15T17:06:14.878Z,40.10
2024-01-15T17:08:43.257Z,40.20
2024-01-15T17:11:11.310Z,36.58
2024-01-15T17:13:39.911Z,41.28
2024-01-15T17:16:12.590Z,40.55
2024-01-15T17:18:40.138Z,55.45
2024-01-15T17:21:07.989Z,57.28
2024-01-15T17:23:35.515Z,68.63
2024-01-15T17:26:03.953Z,59.10
2024-01-15T17:28:31.431Z,58.42
2024-01-15T17:31:00.313Z,58.45
2024-01-15T17:33:27.965Z,69.03
2024-01-15T17:36:00.634Z,68.50
2024-01-15T17:38:30.066Z,56.78
2024-01-15T17:40:59.405Z,52.35
2024-01-15T17:43:27.666Z,51.38
2024-01-15T17:45:56.719Z,58.28
2024-01-15T17:48:24.797Z,55.60
2024-01-15T17:50:53.365Z,57.17
2024-01-15T17:53:21.112Z,65.72
2024-01-15T17:55:49.931Z,56.28
2024-01-15T17:58:17.586Z,65.38
2024-01-15T18:00:45.384Z,63.42
2024-01-15T18:03:12.914Z,59.05
2024-01-15T18:05:40.724Z,47.30
2024-01-15T18:08:08.327Z,34.35
2024-01-15T18:10:45.433Z,30.33
2024-01-15T18:13:13.160Z,30.13
2024-01-15T18:15:41.650Z,32.03
2024-01-15T18:18:09.424Z,32.42
2024-01-15T18:20:37.820Z,31.27
2024-01-15T18:23:05.718Z,28.17
2024-01-15T18:25:33.605Z,29.20
2024-01-15T18:28:01.614Z,37.75
2024-01-15T18:30:29.332Z,38.90
2024-01-15T18:32:57.068Z,40.63
2024-01-15T18:35:27.218Z,45.00
2024-01-15T18:37:54.845Z,46.28
2024-01-15T18:40:23.711Z,43.53
2024-01-15T18:42:51.474Z,40.83
2024-01-15T18:45:19.139Z,41.63
2024-01-15T18:47:47.965Z,42.30
2024-01-15T18:50:15.921Z,45.05
2024-01-15T18:52:43.418Z,43.30
2024-01-15T18:55:14.739Z,53.60
2024-01-15T18:57:42.638Z,40.75
2024-01-15T19:00:12.366Z,48.42
2024-01-15T19:02:40.018Z,59.15
2024-01-15T19:05:08.178Z,53.65
2024-01-15T19:07:35.863Z,76.47
2024-01-15T19:10:03.840Z,44.20
2024-01-15T19:12:31.341Z,41.60
2024-01-15T19:14:59.059Z,36.05
2024-01-15T19:17:26.844Z,32.88
2024-01-15T19:19:55.772Z,32.45
2024-01-15T19:22:23.704Z,35.95
2024-01-15T19:24:51.977Z,34.33
2024-01-15T19:27:20.023Z,31.02
2024-01-15T19:29:47.850Z,44.63
2024-01-15T19:32:15.326Z,50.00
2024-01-15T19:34:43.145Z,65.28
2024-01-15T19:37:10.672Z,50.47
2024-01-15T19:39:38.439Z,45.55
2024-01-15T19:42:06.189Z,40.70
2024-01-15T19:44:34.064Z,41.20
2024-01-15T19:47:04.843Z,39.35
2024-01-15T19:49:33.091Z,44.95
2024-01-15T19:52:00.490Z,44.00
2024-01-15T19:54:28.353Z,44.03
2024-01-15T19:56:55.766Z,37.13
2024-01-15T19:59:23.697Z,38.35
2024-01-15T20:01:51.091Z,44.70
2024-01-15T20:04:18.982Z,34.60
2024-01-15T20:06:46.543Z,30.38
2024-01-15T20:09:14.433Z,29.27
2024-01-15T20:11:43.408Z,29.33
2024-01-15T20:14:11.456Z,31.02
2024-01-15T20:16:39.784Z,26.90
2024-01-15T20:19:07.990Z,26.23
2024-01-15T20:21:37.567Z,22.10
2024-01-15T20:24:06.107Z,30.42
2024-01-15T20:26:33.647Z,33.83
2024-01-15T20:29:02.108Z,28.52
2024-01-15T20:31:30.437Z,26.10
2024-01-15T20:33:58.307Z,28.42
2024-01-15T20:36:25.956Z,21.42
2024-01-15T20:38:53.730Z,21.23
2024-01-15T20:41:21.190Z,19.25
2024-01-15T20:43:49.153Z,18.00
2024-01-15T20:46:16.517Z,18.73
2024-01-15T20:48:45.009Z,19.15
2024-01-15T20:51:12.404Z,14.90
2024-01-15T20:53:42.793Z,16.27
2024-01-15T20:56:11.225Z,23.02
2024-01-15T20:58:39.128Z,19.77
2024-01-15T21:01:07.060Z,22.38
2024-01-15T21:03:36.089Z,22.02
2024-01-15T21:06:03.889Z,22.98
2024-01-15T21:08:32.477Z,21.20
2024-01-15T21:11:03.942Z,19.67
2024-01-15T21:13:32.087Z,18.40
2024-01-15T21:15:59.371Z,22.35
2024-01-15T21:18:28.304Z,23.73
2024-01-15T21:20:56.564Z,22.33
2024-01-15T21:23:24.564Z,23.38
2024-01-15T21:25:52.257Z,24.70
2024-01-15T21:28:20.382Z,32.28
2024-01-15T21:30:48.330Z,26.30
2024-01-15T21:33:16.222Z,26.80
2024-01-15T21:35:43.857Z,27.48
2024-01-15T21:38:11.837Z,33.67
2024-01-15T21:40:39.381Z,105.88
2024-01-15T21:43:07.175Z,34.05
2024-01-15T22:29:40.231Z,8.57
2024-01-15T22:32:07.954Z,6.80
2024-01-15T22:34:35.625Z,7.10
2024-01-15T22:37:03.944Z,14.50
2024-01-15T22:39:31.463Z,12.02
2024-01-15T22:42:00.516Z,5.22
2024-01-15T22:44:28.242Z,12.10
2024-01-15T22:46:56.066Z,12.75
2024-01-15T22:49:23.584Z,9.40
2024-01-15T22:51:51.280Z,8.68
2024-01-15T22:54:18.748Z,8.82
2024-01-15T22:56:46.456Z,39.22
2024-01-15T22:59:17.229Z,10.32
2024-01-15T23:01:48.346Z,9.98
2024-01-15T23:04:16.109Z,8.13
2024-01-15T23:06:43.848Z,8.02
2024-01-15T23:09:11.727Z,7.53
2024-01-15T23:11:39.464Z,8.27
2024-01-15T23:14:06.981Z,11.95
2024-01-15T23:16:34.702Z,8.95
2024-01-15T23:19:02.192Z,8.80
2024-01-15T23:21:29.815Z,8.05
2024-01-15T23:23:57.357Z,24.52
2024-01-15T23:26:25.559Z,9.45
2024-01-15T23:28:53.047Z,11.10
2024-01-15T23:31:20.659Z,8.00
2024-01-15T23:33:48.248Z,5.25
2024-01-15T23:36:16.075Z,5.45
2024-01-15T23:38:43.599Z,5.70
2024-01-15T23:41:20.012Z,5.80
2024-01-15T23:43:49.068Z,5.25
2024-01-15T23:46:17.680Z,5.88
2024-01-15T23:48:45.515Z,6.95
2024-01-15T23:51:13.431Z,5.60
2024-01-15T23:53:41.125Z,5.75
2024-01-15T23:56:08.909Z,8.88
2024-01-15T23:58:36.305Z,11.57
